sim
Sign-in with your pilot id or email,
or register
Callsign
Passwort

Schedule Details

Flight Number: OEO6058
Departure: Cologne Bonn Airport (EDDK) at 10:35
Arrival: Fuerteventura Airport (GCFV) at 15:30

Weather Information
Getting current METAR information for EDDK 231120Z VRB05KT CAVOK 32/13 Q1020 NOSIG
Getting current METAR information for GCFV 231130Z 06014KT 9999 FEW020 24/18 Q1017

Schedule Frequency

Route Map